X  Sluiten METAR luchtvaart weer gegevens      ETAR Ramstein Air Base
Temperatuur
70°F Temperatuur
52°F Dauwpunt
53% Vochtigheid



Wind
5 MPH
8 KM/U
2 M/S
4 KTS



140°
ZO
Huidig weer

Veel verspreide wolken Veel verspreide wolken
Luchtdruk 1017.61 (hPa) - 30.05 (inHg)
Zicht 6 (mijl) - 9.7 (km)
Vliegveld
Vliegveld code ETAR

Locatie : Ramstein Air Base
Afstand: 25 (mi)

Metar:
ETAR 270855Z AUTO 14004KT 9999 SCT037 BKN190 21/11 A3005 RMK AO2 SLP177 T02060110 57006

Tijd: 27-05-2024 10:55 CEST